Time;durP1;ratioP1;P1;durP2;ratioP2;P2;SDS_P1;SDS_P2;PMS_P1;PMS_P2;Temp;Humidity;BMP_temperature;BMP_pressure;BME280_temperature;BME280_humidity;BME280_pressure;Samples;Min_cycle;Max_cycle;Signal;HPM_P1;HPM_P2
2022/07/30 00:01:33;;;;;;;5.00;2.80;;;16.60;99.90;;;;;;5014151;28;20213;-77
2022/07/30 00:04:03;;;;;;;3.70;2.77;;;16.60;99.90;;;;;;5014309;28;20554;-77
2022/07/30 00:06:36;;;;;;;3.47;2.80;;;16.60;99.90;;;;;;5015211;28;20562;-76
2022/07/30 00:09:04;;;;;;;3.13;2.80;;;16.60;99.90;;;;;;5013949;28;20280;-78
2022/07/30 00:11:32;;;;;;;3.60;2.63;;;16.60;99.90;;;;;;5013793;28;20667;-76
2022/07/30 00:14:00;;;;;;;3.87;2.73;;;16.50;99.90;;;;;;5014243;28;20283;-77
2022/07/30 00:16:29;;;;;;;3.43;2.60;;;16.50;99.90;;;;;;5014323;28;20210;-78
2022/07/30 00:19:00;;;;;;;4.87;3.00;;;16.50;99.90;;;;;;5013739;28;20237;-75
2022/07/30 00:21:28;;;;;;;4.07;2.60;;;16.50;99.90;;;;;;5030087;28;20209;-77
2022/07/30 00:24:08;;;;;;;3.30;2.60;;;16.50;99.90;;;;;;5033064;28;20666;-78
2022/07/30 00:26:38;;;;;;;3.10;2.80;;;16.50;99.90;;;;;;5033426;28;20266;-77
2022/07/30 00:29:08;;;;;;;3.33;2.60;;;16.40;99.90;;;;;;5033852;28;20255;-78
2022/07/30 00:31:36;;;;;;;2.60;2.40;;;16.40;99.90;;;;;;5033395;28;20208;-77
2022/07/30 00:34:04;;;;;;;2.80;2.50;;;16.40;99.90;;;;;;5033365;28;20278;-78
2022/07/30 00:36:33;;;;;;;3.53;2.50;;;16.40;99.90;;;;;;5033502;28;20240;-78
2022/07/30 00:39:06;;;;;;;2.37;2.17;;;16.40;99.90;;;;;;5033330;28;20209;-77
2022/07/30 00:41:36;;;;;;;2.90;2.40;;;16.40;99.90;;;;;;5033472;28;20283;-78
2022/07/30 00:44:05;;;;;;;9.23;2.67;;;16.40;99.90;;;;;;5032758;28;20286;-79
2022/07/30 00:46:33;;;;;;;2.83;2.60;;;16.40;99.90;;;;;;5020306;28;20250;-79
2022/07/30 00:49:01;;;;;;;3.33;2.57;;;16.40;99.90;;;;;;5013584;28;20233;-79
2022/07/30 00:51:30;;;;;;;3.33;2.63;;;16.30;99.90;;;;;;5012975;28;20213;-79
2022/07/30 00:54:03;;;;;;;4.60;2.70;;;16.30;99.90;;;;;;5013256;28;20209;-77
2022/07/30 00:56:35;;;;;;;3.07;2.73;;;16.30;99.90;;;;;;5014842;28;20620;-78
2022/07/30 00:59:04;;;;;;;3.10;2.80;;;16.30;99.90;;;;;;5012235;28;20638;-78
2022/07/30 01:01:32;;;;;;;4.00;2.80;;;16.30;99.90;;;;;;5012923;28;20292;-78
2022/07/30 01:04:01;;;;;;;3.53;2.90;;;16.30;99.90;;;;;;5012764;28;20295;-78
2022/07/30 01:06:29;;;;;;;3.87;2.57;;;16.30;99.90;;;;;;5013889;28;20229;-78
2022/07/30 01:08:57;;;;;;;3.10;2.70;;;16.30;99.90;;;;;;5013056;28;20284;-79
2022/07/30 01:11:35;;;;;;;3.10;2.80;;;16.20;99.90;;;;;;5013597;28;20201;-78
2022/07/30 01:14:04;;;;;;;6.13;2.90;;;16.20;99.90;;;;;;5013267;28;20217;-79
2022/07/30 01:16:32;;;;;;;3.03;2.47;;;16.30;99.90;;;;;;5013197;28;20221;-78
2022/07/30 01:22:00;;;;;;;3.30;2.63;;;16.30;99.90;;;;;;5014447;28;20644;-78
2022/07/30 01:24:36;;;;;;;4.43;2.60;;;16.20;99.90;;;;;;5013360;28;20229;-79
2022/07/30 01:27:10;;;;;;;3.43;2.60;;;16.20;99.90;;;;;;5015797;28;20568;-79
2022/07/30 01:29:40;;;;;;;4.00;2.60;;;16.20;99.90;;;;;;5017833;28;20194;-80
2022/07/30 01:32:10;;;;;;;3.40;2.37;;;16.20;99.90;;;;;;5014661;28;20225;-79
2022/07/30 01:34:40;;;;;;;3.43;2.43;;;16.30;99.90;;;;;;5019117;28;20284;-80
2022/07/30 01:37:10;;;;;;;2.87;2.57;;;16.30;99.90;;;;;;5036191;28;20397;-80
2022/07/30 01:39:39;;;;;;;5.10;2.63;;;16.30;99.90;;;;;;5040793;28;20228;-79
2022/07/30 01:42:12;;;;;;;5.70;2.97;;;16.30;99.90;;;;;;5035335;28;20251;-78
2022/07/30 01:44:41;;;;;;;5.00;3.00;;;16.30;99.90;;;;;;5040277;28;20217;-80
2022/07/30 01:47:16;;;;;;;7.77;3.20;;;16.30;99.90;;;;;;5040774;28;20228;-80
2022/07/30 01:49:48;;;;;;;3.10;2.60;;;16.30;99.90;;;;;;5034936;28;20441;-79
2022/07/30 01:52:18;;;;;;;3.73;2.90;;;16.20;99.90;;;;;;5045518;28;20194;-78
2022/07/30 01:54:50;;;;;;;3.73;2.53;;;16.20;99.90;;;;;;5050278;28;20209;-80
2022/07/30 01:57:22;;;;;;;4.23;2.83;;;16.20;99.90;;;;;;5052797;28;20358;-81
2022/07/30 01:59:59;;;;;;;3.53;2.80;;;16.20;99.90;;;;;;5051813;28;20292;-78
2022/07/30 02:02:28;;;;;;;5.20;2.70;;;16.20;99.90;;;;;;5053684;28;20193;-81
2022/07/30 02:04:58;;;;;;;4.27;3.00;;;16.10;99.90;;;;;;5054065;28;20245;-80
2022/07/30 02:07:34;;;;;;;4.60;2.87;;;16.10;99.90;;;;;;5057292;28;20204;-80
2022/07/30 02:10:05;;;;;;;3.87;3.20;;;16.10;99.90;;;;;;5056749;28;20197;-78
2022/07/30 02:12:40;;;;;;;4.90;2.87;;;16.10;99.90;;;;;;5058431;28;20213;-77
2022/07/30 02:15:15;;;;;;;3.97;2.70;;;16.10;99.90;;;;;;5058758;28;20212;-76
2022/07/30 02:17:54;;;;;;;3.73;2.90;;;16.10;99.90;;;;;;5059129;28;20205;-79
2022/07/30 02:20:27;;;;;;;4.60;2.90;;;16.10;99.90;;;;;;5057836;28;20189;-79
2022/07/30 02:23:00;;;;;;;3.60;2.80;;;16.10;99.90;;;;;;5057849;28;20193;-79
2022/07/30 02:25:33;;;;;;;5.63;2.87;;;16.10;99.90;;;;;;5054042;28;20227;-81
2022/07/30 02:28:10;;;;;;;3.83;2.70;;;16.10;99.90;;;;;;5055438;28;20216;-81
2022/07/30 02:30:47;;;;;;;6.57;2.73;;;16.10;99.90;;;;;;5056757;28;20201;-76
2022/07/30 02:33:17;;;;;;;2.83;2.60;;;16.10;99.90;;;;;;5055668;28;20270;-81
2022/07/30 02:35:46;;;;;;;6.13;2.97;;;16.20;99.90;;;;;;5056412;28;20219;-81
2022/07/30 02:38:17;;;;;;;4.07;2.70;;;16.10;99.90;;;;;;5055677;28;20200;-79
2022/07/30 02:40:46;;;;;;;5.67;3.00;;;16.20;99.90;;;;;;5053711;28;20189;-81
2022/07/30 02:43:20;;;;;;;4.97;3.30;;;16.20;99.90;;;;;;5053117;28;20205;-80
2022/07/30 02:45:49;;;;;;;8.47;3.20;;;16.20;99.90;;;;;;5054861;28;20232;-80
2022/07/30 02:48:23;;;;;;;4.97;2.93;;;16.20;99.90;;;;;;5056816;28;20236;-81
2022/07/30 02:51:04;;;;;;;3.23;2.60;;;16.20;99.90;;;;;;5052454;28;20382;-81
2022/07/30 02:53:34;;;;;;;4.80;2.80;;;16.20;99.90;;;;;;5050022;28;20221;-78
2022/07/30 02:56:05;;;;;;;4.73;2.77;;;16.20;99.90;;;;;;5052039;28;20205;-80
2022/07/30 02:58:39;;;;;;;4.37;3.03;;;16.20;99.90;;;;;;5050133;28;20234;-83
2022/07/30 03:01:09;;;;;;;4.10;2.90;;;16.20;99.90;;;;;;5052223;28;20223;-82
2022/07/30 03:03:40;;;;;;;6.97;3.00;;;16.20;99.90;;;;;;5049501;28;20224;-82
2022/07/30 03:06:10;;;;;;;4.90;2.90;;;16.20;99.90;;;;;;5049497;28;20250;-82
2022/07/30 03:08:39;;;;;;;3.83;2.80;;;16.20;99.90;;;;;;5047743;28;20257;-81
2022/07/30 03:11:10;;;;;;;3.80;2.90;;;16.30;99.90;;;;;;5048038;28;20224;-83
2022/07/30 03:13:40;;;;;;;4.07;2.80;;;16.20;99.90;;;;;;5048376;28;20223;-81
2022/07/30 03:16:10;;;;;;;4.27;2.80;;;16.30;99.90;;;;;;5045381;28;20231;-80
2022/07/30 03:18:45;;;;;;;4.03;3.00;;;16.30;99.90;;;;;;5043594;28;20225;-83
2022/07/30 03:21:17;;;;;;;6.63;3.23;;;16.30;99.90;;;;;;5044131;28;20209;-82
2022/07/30 03:23:49;;;;;;;5.87;3.30;;;16.20;99.90;;;;;;5043460;28;20509;-81
2022/07/30 03:26:21;;;;;;;5.20;2.97;;;16.20;99.90;;;;;;5043297;28;20237;-81
2022/07/30 03:28:52;;;;;;;7.17;3.67;;;16.20;99.90;;;;;;5045268;28;20270;-82
2022/07/30 03:31:20;;;;;;;5.77;3.23;;;16.20;99.90;;;;;;5047553;28;20200;-81
2022/07/30 03:33:49;;;;;;;4.70;3.17;;;16.20;99.90;;;;;;5047496;28;20216;-82
2022/07/30 03:36:20;;;;;;;4.57;3.40;;;16.20;99.90;;;;;;5044105;28;20232;-82
2022/07/30 03:38:49;;;;;;;5.17;3.40;;;16.10;99.90;;;;;;5047329;28;20204;-82
2022/07/30 03:41:19;;;;;;;5.33;3.37;;;16.20;99.90;;;;;;5047370;28;20232;-81
2022/07/30 03:43:48;;;;;;;6.03;3.30;;;16.10;99.90;;;;;;5051080;28;20253;-82
2022/07/30 03:46:22;;;;;;;5.10;3.53;;;16.10;99.90;;;;;;5051025;28;20232;-82
2022/07/30 03:48:53;;;;;;;5.27;3.70;;;16.10;99.90;;;;;;5048441;28;20232;-82
2022/07/30 03:51:22;;;;;;;4.23;3.57;;;16.10;99.90;;;;;;5044341;28;20281;-80
2022/07/30 03:54:00;;;;;;;5.73;3.37;;;16.10;99.90;;;;;;5042171;28;20295;-81
2022/07/30 03:56:29;;;;;;;4.20;3.50;;;16.10;99.90;;;;;;5041647;28;20200;-81
2022/07/30 03:58:58;;;;;;;4.27;3.10;;;16.10;99.90;;;;;;5044996;28;20217;-80
2022/07/30 04:01:28;;;;;;;4.97;3.73;;;16.00;99.90;;;;;;5038339;28;20201;-80
2022/07/30 04:04:03;;;;;;;5.30;4.27;;;16.00;99.90;;;;;;5035679;28;20296;-82
2022/07/30 04:06:35;;;;;;;4.67;3.60;;;16.00;99.90;;;;;;5045674;28;20242;-77
2022/07/30 04:09:04;;;;;;;7.07;4.47;;;16.00;99.90;;;;;;5046241;28;20208;-81
2022/07/30 04:11:32;;;;;;;6.13;4.53;;;16.00;99.90;;;;;;5045585;28;20296;-81
2022/07/30 04:14:08;;;;;;;6.90;3.83;;;16.00;99.90;;;;;;5043322;28;20197;-80
2022/07/30 04:16:46;;;;;;;9.67;4.17;;;15.90;99.90;;;;;;5039956;28;20189;-78
2022/07/30 04:19:22;;;;;;;5.27;3.80;;;15.90;99.90;;;;;;5044773;28;20262;-82
2022/07/30 04:21:53;;;;;;;6.77;3.67;;;15.90;99.90;;;;;;5043964;28;20236;-81
2022/07/30 04:24:24;;;;;;;7.13;4.20;;;16.00;99.90;;;;;;5045764;28;20204;-82
2022/07/30 04:26:53;;;;;;;4.93;4.07;;;16.00;99.90;;;;;;5042806;28;20308;-80
2022/07/30 04:29:22;;;;;;;6.73;4.13;;;16.00;99.90;;;;;;5040515;28;20240;-79
2022/07/30 04:31:54;;;;;;;4.17;3.60;;;16.00;99.90;;;;;;5036918;28;20224;-82
2022/07/30 04:34:23;;;;;;;4.53;3.80;;;16.00;99.90;;;;;;5040365;28;20208;-81
2022/07/30 04:36:52;;;;;;;5.27;3.40;;;16.30;99.90;;;;;;5042575;28;20201;-81
2022/07/30 04:39:20;;;;;;;6.33;3.23;;;16.60;99.90;;;;;;5042817;28;20213;-82
2022/07/30 04:41:49;;;;;;;5.60;3.20;;;16.80;99.90;;;;;;5038852;28;20580;-77
2022/07/30 04:44:18;;;;;;;3.57;3.00;;;16.90;99.90;;;;;;5036138;28;20628;-81
2022/07/30 04:46:47;;;;;;;4.87;3.23;;;17.10;99.90;;;;;;5021237;28;20252;-82
2022/07/30 04:49:18;;;;;;;7.53;3.27;;;17.20;99.90;;;;;;5017056;28;20293;-82
2022/07/30 04:51:48;;;;;;;4.40;3.30;;;17.20;99.90;;;;;;5019082;28;20240;-77
2022/07/30 04:54:19;;;;;;;6.90;3.27;;;17.20;99.90;;;;;;5016187;28;20213;-81
2022/07/30 04:56:49;;;;;;;4.73;3.43;;;17.20;99.90;;;;;;5017318;28;20548;-82
2022/07/30 04:59:27;;;;;;;5.60;3.50;;;17.10;99.90;;;;;;5017617;28;20567;-79
2022/07/30 05:01:58;;;;;;;5.70;3.30;;;17.20;99.90;;;;;;5018604;28;20578;-79
2022/07/30 05:04:31;;;;;;;4.87;3.33;;;17.30;99.90;;;;;;5017307;28;20280;-81
2022/07/30 05:07:01;;;;;;;4.90;3.27;;;17.30;99.90;;;;;;5014895;28;20213;-81
2022/07/30 05:09:30;;;;;;;5.13;3.57;;;17.30;99.90;;;;;;5015294;28;20252;-81
2022/07/30 05:11:59;;;;;;;6.73;3.37;;;17.30;99.90;;;;;;5015160;28;20217;-80
2022/07/30 05:14:30;;;;;;;6.33;3.43;;;17.30;99.90;;;;;;5014787;28;20726;-77
2022/07/30 05:16:58;;;;;;;5.00;3.67;;;17.30;99.90;;;;;;5014881;28;20287;-82
2022/07/30 05:19:28;;;;;;;4.73;3.27;;;17.40;99.90;;;;;;5014345;28;20601;-82
2022/07/30 05:21:57;;;;;;;5.33;3.60;;;17.50;99.90;;;;;;5014136;28;20583;-78
2022/07/30 05:24:25;;;;;;;6.23;3.37;;;17.50;99.90;;;;;;5014624;28;20316;-79
2022/07/30 05:26:54;;;;;;;5.03;3.40;;;17.50;99.90;;;;;;5013698;28;20248;-80
2022/07/30 05:29:24;;;;;;;6.67;3.43;;;17.60;99.90;;;;;;5013975;28;20287;-81
2022/07/30 05:31:52;;;;;;;6.73;3.50;;;17.70;99.90;;;;;;5016076;28;20196;-81
2022/07/30 05:34:20;;;;;;;3.90;3.50;;;17.70;99.90;;;;;;5015061;28;20249;-81
2022/07/30 05:36:51;;;;;;;4.83;3.30;;;17.70;99.90;;;;;;5014855;28;20201;-77
2022/07/30 05:39:20;;;;;;;5.77;3.57;;;17.80;99.90;;;;;;5014190;28;20304;-79
2022/07/30 05:41:48;;;;;;;4.73;3.50;;;17.80;99.90;;;;;;5020585;28;20568;-75
2022/07/30 05:44:20;;;;;;;5.40;3.70;;;17.80;99.90;;;;;;5020070;28;20205;-83
2022/07/30 05:46:51;;;;;;;3.97;3.53;;;17.80;99.90;;;;;;5018202;28;20259;-78
2022/07/30 05:49:19;;;;;;;7.17;3.63;;;18.10;99.90;;;;;;5017519;28;20297;-81
2022/07/30 05:51:48;;;;;;;5.87;3.33;;;18.20;99.90;;;;;;5017687;28;20695;-81
2022/07/30 05:54:18;;;;;;;5.77;3.30;;;18.50;99.90;;;;;;5018252;28;20216;-81
2022/07/30 05:56:47;;;;;;;4.73;3.20;;;18.70;99.90;;;;;;5017488;28;20682;-78
2022/07/30 05:59:24;;;;;;;4.17;3.00;;;18.80;99.90;;;;;;5016537;28;20213;-82
2022/07/30 06:01:52;;;;;;;3.50;3.20;;;18.90;99.90;;;;;;5016761;28;20205;-82
2022/07/30 06:04:20;;;;;;;4.73;3.50;;;18.80;99.90;;;;;;5017423;28;20218;-80
2022/07/30 06:06:49;;;;;;;4.10;2.90;;;19.00;99.90;;;;;;5016978;28;20569;-80
2022/07/30 06:09:18;;;;;;;4.83;2.87;;;19.70;99.90;;;;;;5016002;28;20241;-78
2022/07/30 06:12:04;;;;;;;3.47;2.80;;;20.20;99.90;;;;;;5033471;28;20297;-80
2022/07/30 06:14:35;;;;;;;3.97;2.73;;;20.80;99.90;;;;;;5035765;28;20205;-74
2022/07/30 06:17:04;;;;;;;3.33;2.70;;;20.90;99.90;;;;;;5035695;28;20229;-80
2022/07/30 06:19:32;;;;;;;4.57;3.07;;;20.90;99.90;;;;;;5035210;28;20205;-75
2022/07/30 06:22:00;;;;;;;5.10;2.97;;;20.90;99.90;;;;;;5023481;28;20304;-82
2022/07/30 06:24:36;;;;;;;5.50;3.00;;;20.80;99.90;;;;;;5015960;28;20636;-80
2022/07/30 06:27:05;;;;;;;3.80;3.20;;;21.10;99.90;;;;;;5018557;28;20233;-81
2022/07/30 06:29:33;;;;;;;4.93;3.07;;;21.50;99.90;;;;;;5015920;28;20264;-77
2022/07/30 06:32:05;;;;;;;3.27;2.70;;;21.90;99.90;;;;;;5016424;28;20221;-80
2022/07/30 06:34:33;;;;;;;6.67;3.10;;;21.70;99.90;;;;;;5015996;28;20642;-79
2022/07/30 06:37:01;;;;;;;6.47;3.33;;;21.50;99.90;;;;;;5019273;28;20247;-77
2022/07/30 06:39:31;;;;;;;4.70;3.10;;;21.00;99.90;;;;;;5035003;28;20295;-78
2022/07/30 06:42:20;;;;;;;5.30;3.20;;;21.00;99.90;;;;;;5035999;28;20671;-82
2022/07/30 06:44:48;;;;;;;7.33;2.80;;;21.20;99.90;;;;;;5030449;28;20255;-78
2022/07/30 06:47:24;;;;;;;3.80;2.90;;;21.80;99.90;;;;;;5030401;28;20406;-75
2022/07/30 06:49:56;;;;;;;4.50;2.87;;;22.20;99.90;;;;;;5034095;28;20209;-78
2022/07/30 06:52:24;;;;;;;6.67;3.00;;;22.50;99.90;;;;;;5034469;28;20205;-81
2022/07/30 06:54:53;;;;;;;4.47;2.80;;;22.90;99.90;;;;;;5034619;28;20213;-80
2022/07/30 06:57:22;;;;;;;5.57;2.97;;;23.10;99.90;;;;;;5019978;28;20264;-78
2022/07/30 06:59:51;;;;;;;4.07;2.80;;;23.10;99.90;;;;;;5034751;28;20638;-80
2022/07/30 07:02:24;;;;;;;4.90;3.37;;;23.00;99.90;;;;;;5036454;28;20216;-81
2022/07/30 07:04:52;;;;;;;4.73;3.00;;;22.50;99.90;;;;;;5035917;28;20629;-76
2022/07/30 07:07:20;;;;;;;4.07;3.33;;;22.40;99.90;;;;;;5035455;28;20209;-82
2022/07/30 07:10:08;;;;;;;6.53;3.50;;;22.50;99.90;;;;;;5035110;28;20216;-81
2022/07/30 07:12:40;;;;;;;5.47;3.30;;;23.10;99.90;;;;;;5035597;28;20216;-82
2022/07/30 07:15:10;;;;;;;6.33;3.10;;;23.80;99.90;;;;;;5035099;28;20296;-77
2022/07/30 07:17:39;;;;;;;5.70;3.03;;;24.20;99.90;;;;;;5035111;28;20185;-81
2022/07/30 07:20:08;;;;;;;3.27;2.97;;;24.60;99.90;;;;;;5035112;28;20667;-83
2022/07/30 07:22:36;;;;;;;6.17;2.97;;;25.30;99.90;;;;;;5036387;28;20744;-83
2022/07/30 07:25:06;;;;;;;6.47;3.13;;;26.30;99.90;;;;;;5036664;28;20228;-80
2022/07/30 07:27:34;;;;;;;4.10;3.07;;;26.40;99.90;;;;;;5034527;28;20249;-81
2022/07/30 07:30:05;;;;;;;5.37;3.13;;;25.90;99.90;;;;;;5034794;28;20603;-83
2022/07/30 07:32:34;;;;;;;4.70;3.20;;;25.50;99.90;;;;;;5034935;28;20281;-81
2022/07/30 07:35:06;;;;;;;6.23;3.33;;;25.10;99.90;;;;;;5042075;28;20216;-82
2022/07/30 07:37:35;;;;;;;3.77;3.07;;;24.90;99.90;;;;;;5015037;28;20276;-77
2022/07/30 07:40:05;;;;;;;4.73;3.00;;;25.50;99.90;;;;;;5014893;28;20256;-82
2022/07/30 07:42:34;;;;;;;5.10;3.07;;;25.60;99.90;;;;;;5016606;28;20240;-82
2022/07/30 07:45:04;;;;;;;6.27;3.43;;;25.40;99.90;;;;;;5015020;28;20218;-80
2022/07/30 07:47:42;;;;;;;3.87;3.23;;;25.00;99.90;;;;;;5015485;28;20201;-78
2022/07/30 07:50:20;;;;;;;4.87;3.13;;;24.90;99.90;;;;;;5014494;28;20193;-83
2022/07/30 07:52:48;;;;;;;5.47;3.30;;;25.70;99.90;;;;;;5014317;28;20268;-78
2022/07/30 07:55:16;;;;;;;5.53;3.40;;;25.70;99.90;;;;;;5021759;28;20201;-80
2022/07/30 07:57:45;;;;;;;3.83;3.00;;;25.60;99.90;;;;;;5034225;28;20225;-80
2022/07/30 08:00:17;;;;;;;6.50;3.53;;;25.60;99.90;;;;;;5034287;28;20659;-81
2022/07/30 08:02:47;;;;;;;4.10;3.17;;;26.10;99.90;;;;;;5030759;28;20215;-82
2022/07/30 08:05:16;;;;;;;4.30;3.10;;;26.10;99.90;;;;;;5013656;28;20229;-82
2022/07/30 08:07:48;;;;;;;3.53;2.73;;;26.10;99.90;;;;;;5014462;28;20622;-79
2022/07/30 08:10:17;;;;;;;5.43;3.13;;;27.00;99.90;;;;;;5013974;28;20638;-80
2022/07/30 08:12:46;;;;;;;4.95;3.25;;;27.10;99.90;;;;;;5032050;28;20572;-80
2022/07/30 08:15:15;;;;;;;5.80;3.10;;;27.60;99.90;;;;;;5041846;28;20236;-83
2022/07/30 08:17:49;;;;;;;3.90;3.40;;;27.80;99.90;;;;;;5029923;28;20204;-79
2022/07/30 08:20:17;;;;;;;6.07;3.20;;;27.80;99.90;;;;;;5036739;28;20213;-82
2022/07/30 08:22:45;;;;;;;6.40;3.47;;;28.00;99.90;;;;;;5014040;28;20249;-83
2022/07/30 08:25:16;;;;;;;6.72;3.65;;;28.80;99.90;;;;;;5015254;28;20216;-83
2022/07/30 08:27:51;;;;;;;3.80;3.08;;;29.50;99.90;;;;;;5014577;28;20209;-85
2022/07/30 08:30:21;;;;;;;5.45;3.38;;;28.90;99.90;;;;;;5027367;28;20243;-81
2022/07/30 08:32:50;;;;;;;4.60;3.40;;;28.80;99.90;;;;;;5032755;28;20204;-84
2022/07/30 08:35:18;;;;;;;13.23;5.45;;;28.30;99.90;;;;;;5021791;28;20260;-82
2022/07/30 08:37:46;;;;;;;7.03;3.53;;;28.50;99.90;;;;;;5026708;28;20208;-83
2022/07/30 08:40:14;;;;;;;6.53;3.17;;;29.00;99.90;;;;;;5033136;28;20212;-85
2022/07/30 08:42:48;;;;;;;4.88;3.50;;;29.40;99.90;;;;;;5033627;28;20213;-79
2022/07/30 08:45:18;;;;;;;8.98;3.70;;;28.70;99.70;;;;;;5033767;28;20236;-80
2022/07/30 08:47:51;;;;;;;7.85;4.18;;;27.60;99.90;;;;;;5030220;28;20229;-82
2022/07/30 08:50:20;;;;;;;4.97;3.67;;;26.40;99.90;;;;;;5032648;28;20305;-81
2022/07/30 08:52:54;;;;;;;9.18;4.40;;;26.80;99.90;;;;;;5033001;28;20270;-81
2022/07/30 08:55:25;;;;;;;6.45;4.18;;;26.70;99.90;;;;;;5015434;28;20308;-82
2022/07/30 08:57:54;;;;;;;7.43;4.03;;;26.60;99.90;;;;;;5019665;28;20327;-77
2022/07/30 09:00:22;;;;;;;10.02;3.90;;;27.10;99.90;;;;;;5032360;28;20235;-83
2022/07/30 09:02:52;;;;;;;5.32;3.47;;;27.90;99.90;;;;;;5032143;28;20213;-82
2022/07/30 09:05:20;;;;;;;6.22;3.75;;;29.00;99.90;;;;;;5031769;28;20236;-84
2022/07/30 09:07:49;;;;;;;5.72;4.00;;;28.50;99.90;;;;;;5028015;28;20567;-80
2022/07/30 09:10:18;;;;;;;6.35;3.83;;;29.00;99.80;;;;;;5020291;28;20387;-80
2022/07/30 09:12:47;;;;;;;6.03;3.53;;;28.90;99.90;;;;;;5021984;28;20233;-81
2022/07/30 09:15:19;;;;;;;4.93;3.90;;;28.60;99.50;;;;;;5020122;28;20202;-82
2022/07/30 09:17:50;;;;;;;8.15;4.20;;;28.90;99.70;;;;;;5018054;28;20205;-82
2022/07/30 09:20:21;;;;;;;7.05;3.58;;;29.30;98.10;;;;;;5018035;28;20280;-83
2022/07/30 09:22:50;;;;;;;6.72;3.72;;;30.00;98.40;;;;;;5016989;28;20241;-81
2022/07/30 09:25:34;;;;;;;5.95;3.20;;;30.30;96.00;;;;;;5016921;28;20232;-83
2022/07/30 09:28:03;;;;;;;5.15;3.53;;;29.60;96.40;;;;;;5017230;28;20265;-80
2022/07/30 09:30:48;;;;;;;7.30;3.65;;;29.30;97.10;;;;;;5017796;28;20249;-87
2022/07/30 09:33:32;;;;;;;6.22;3.65;;;29.50;96.40;;;;;;5019055;28;20225;-83
2022/07/30 09:36:03;;;;;;;4.72;3.13;;;29.90;95.80;;;;;;5017122;28;20213;-82
2022/07/30 09:38:42;;;;;;;6.57;3.28;;;30.40;95.90;;;;;;5016772;28;20218;-82
2022/07/30 09:41:11;;;;;;;5.30;3.08;;;30.10;92.70;;;;;;5017451;28;20241;-82
2022/07/30 09:44:07;;;;;;;6.20;2.90;;;30.60;93.20;;;;;;5016121;28;20742;-83
2022/07/30 09:46:49;;;;;;;4.40;2.88;;;31.40;92.10;;;;;;5016394;28;20275;-81
2022/07/30 09:49:19;;;;;;;6.20;3.00;;;31.90;91.70;;;;;;5016049;28;20214;-83
2022/07/30 09:51:49;;;;;;;5.07;3.20;;;32.00;90.50;;;;;;5015903;28;20594;-82
2022/07/30 09:54:24;;;;;;;4.03;3.20;;;30.90;91.20;;;;;;5019015;28;20554;-81
2022/07/30 09:57:07;;;;;;;5.57;2.97;;;29.70;92.90;;;;;;5019561;28;20292;-80
2022/07/30 09:59:53;;;;;;;6.10;3.25;;;29.10;93.20;;;;;;5016478;28;20198;-80
2022/07/30 10:02:28;;;;;;;6.72;3.15;;;29.50;93.70;;;;;;5024656;28;20299;-81
2022/07/30 10:05:10;;;;;;;4.20;2.92;;;29.00;93.90;;;;;;5035999;28;20196;-81
2022/07/30 10:07:50;;;;;;;4.30;3.00;;;28.20;93.40;;;;;;5035364;28;20213;-80
2022/07/30 10:10:22;;;;;;;5.03;2.92;;;28.00;94.90;;;;;;5035346;28;20216;-82
2022/07/30 10:12:57;;;;;;;3.60;2.72;;;28.60;94.80;;;;;;5035243;28;20196;-81
2022/07/30 10:15:30;;;;;;;3.95;2.92;;;28.50;94.10;;;;;;5037449;28;20644;-78
2022/07/30 10:18:00;;;;;;;3.53;2.58;;;28.30;93.20;;;;;;5038158;28;20212;-78
2022/07/30 10:20:33;;;;;;;3.83;2.75;;;28.20;92.70;;;;;;5034366;28;20560;-82
2022/07/30 10:23:07;;;;;;;6.03;2.88;;;29.00;92.60;;;;;;5018034;28;20210;-80
2022/07/30 10:25:37;;;;;;;3.33;2.60;;;29.80;93.20;;;;;;5020000;28;20197;-79
2022/07/30 10:28:18;;;;;;;6.20;2.65;;;30.60;91.70;;;;;;5017839;28;20277;-80
2022/07/30 10:30:50;;;;;;;6.03;2.35;;;31.60;90.40;;;;;;5014687;28;20244;-82
2022/07/30 10:33:19;;;;;;;4.95;2.60;;;30.90;90.30;;;;;;5014832;28;20656;-80
2022/07/30 10:36:05;;;;;;;3.58;2.55;;;30.60;90.00;;;;;;5028029;28;20233;-79
2022/07/30 10:38:41;;;;;;;6.53;2.80;;;30.00;91.10;;;;;;5033876;28;20259;-80
2022/07/30 10:41:17;;;;;;;6.72;2.63;;;29.10;92.20;;;;;;5035542;28;20213;-77
2022/07/30 10:44:35;;;;;;;5.78;2.90;;;28.10;93.20;;;;;;5035490;28;20216;-76
2022/07/30 10:47:05;;;;;;;4.50;2.53;;;27.40;92.70;;;;;;5037804;28;20251;-80
2022/07/30 10:49:36;;;;;;;4.63;2.40;;;27.00;94.30;;;;;;5037064;28;20228;-82
2022/07/30 10:52:10;;;;;;;4.33;2.30;;;26.40;92.80;;;;;;5036092;28;20208;-81
2022/07/30 10:54:43;;;;;;;4.57;2.23;;;25.80;92.90;;;;;;5036171;28;20270;-81
2022/07/30 10:57:17;;;;;;;2.80;2.17;;;25.20;92.60;;;;;;5036898;28;20217;-82
2022/07/30 11:00:15;;;;;;;4.47;2.33;;;24.80;95.00;;;;;;5035620;28;20213;-76
2022/07/30 11:03:16;;;;;;;5.87;2.50;;;24.20;95.70;;;;;;5035639;28;20229;-81
2022/07/30 11:05:47;;;;;;;4.43;2.53;;;25.20;95.90;;;;;;5036684;28;20213;-80
2022/07/30 11:08:33;;;;;;;3.63;2.13;;;26.60;94.60;;;;;;5036797;28;20233;-83
2022/07/30 11:11:26;;;;;;;3.25;2.13;;;27.70;92.50;;;;;;5037043;28;20322;-83
2022/07/30 11:14:14;;;;;;;2.17;2.03;;;28.00;92.00;;;;;;5037151;28;20208;-82
2022/07/30 11:16:59;;;;;;;3.33;2.00;;;27.30;90.90;;;;;;5036642;28;20224;-82
2022/07/30 11:19:27;;;;;;;3.33;1.80;;;27.00;91.60;;;;;;5037105;28;20240;-80
2022/07/30 11:22:25;;;;;;;3.70;2.20;;;26.60;91.30;;;;;;5023383;28;20767;-80
2022/07/30 11:25:00;;;;;;;3.80;1.97;;;26.00;91.60;;;;;;5017452;28;20571;-79
2022/07/30 11:27:44;;;;;;;4.73;2.10;;;25.50;91.20;;;;;;5025890;28;20224;-79
2022/07/30 11:30:34;;;;;;;3.67;1.87;;;25.10;92.10;;;;;;5025823;28;20224;-76
2022/07/30 11:33:25;;;;;;;5.37;2.00;;;24.80;93.20;;;;;;5026813;28;99505;-79
2022/07/30 11:36:11;;;;;;;2.63;2.03;;;24.60;92.70;;;;;;5043428;28;20197;-79
2022/07/30 11:38:56;;;;;;;5.53;2.20;;;24.50;92.30;;;;;;5046573;28;20643;-77
2022/07/30 11:41:34;;;;;;;4.43;2.17;;;24.40;94.60;;;;;;5043629;28;20208;-78
2022/07/30 11:44:33;;;;;;;5.00;2.23;;;24.20;94.20;;;;;;5034746;28;20300;-79
2022/07/30 11:47:02;;;;;;;9.80;3.30;;;23.80;94.60;;;;;;5035021;28;20193;-78
2022/07/30 11:49:35;;;;;;;10.30;3.00;;;23.20;96.00;;;;;;5033757;28;20643;-76
2022/07/30 11:52:04;;;;;;;9.33;3.40;;;22.30;99.90;;;;;;5029817;28;20287;-77
2022/07/30 11:54:32;;;;;;;11.37;2.83;;;21.20;99.90;;;;;;5020188;28;20206;-79
2022/07/30 11:57:01;;;;;;;12.07;2.70;;;20.40;99.90;;;;;;5015650;28;20213;-79
2022/07/30 11:59:52;;;;;;;7.37;2.93;;;19.90;99.90;;;;;;5012473;28;20214;-75
2022/07/30 12:02:27;;;;;;;4.93;3.20;;;19.20;99.90;;;;;;5026770;28;20664;-77
2022/07/30 12:04:55;;;;;;;8.73;3.30;;;18.80;99.90;;;;;;5012255;28;20307;-78
2022/07/30 12:07:24;;;;;;;5.77;3.03;;;18.40;99.90;;;;;;5015100;28;20837;-75
2022/07/30 12:09:52;;;;;;;7.80;3.83;;;18.10;99.90;;;;;;5014672;28;20293;-76
2022/07/30 12:12:24;;;;;;;7.40;4.13;;;18.00;99.90;;;;;;5012496;28;20216;-79
2022/07/30 12:14:53;;;;;;;6.33;4.30;;;18.00;99.90;;;;;;5012010;28;20264;-78
2022/07/30 12:17:41;;;;;;;7.33;4.83;;;18.20;99.90;;;;;;5010651;28;20209;-76
2022/07/30 12:20:16;;;;;;;6.10;4.70;;;19.00;99.90;;;;;;5011505;28;20236;-77
2022/07/30 12:22:45;;;;;;;6.93;4.57;;;19.50;99.90;;;;;;5011508;28;20687;-77
2022/07/30 12:25:14;;;;;;;4.70;3.83;;;19.70;99.90;;;;;;5011319;28;20248;-78
2022/07/30 12:27:47;;;;;;;6.87;4.70;;;19.80;99.90;;;;;;5010568;28;20232;-77
2022/07/30 12:30:20;;;;;;;8.50;4.20;;;20.00;99.90;;;;;;5016396;28;20710;-76
2022/07/30 12:32:49;;;;;;;6.73;4.13;;;20.20;99.90;;;;;;5015086;28;20212;-78
2022/07/30 12:35:17;;;;;;;8.00;4.20;;;20.60;99.90;;;;;;5015364;28;20288;-75
2022/07/30 12:38:04;;;;;;;6.07;3.90;;;20.90;99.90;;;;;;5012359;28;20296;-80
2022/07/30 12:40:32;;;;;;;5.20;3.47;;;21.10;99.90;;;;;;5012241;28;20229;-76
2022/07/30 12:43:03;;;;;;;6.00;3.63;;;21.30;99.90;;;;;;5015646;28;20279;-78
2022/07/30 12:45:42;;;;;;;6.17;3.70;;;21.50;99.90;;;;;;5015978;28;20223;-76
2022/07/30 12:48:19;;;;;;;4.70;3.00;;;21.50;99.90;;;;;;5016195;28;20208;-74
2022/07/30 12:50:49;;;;;;;3.47;2.67;;;21.40;99.90;;;;;;5012361;28;20233;-74
2022/07/30 12:53:17;;;;;;;4.67;3.10;;;21.30;99.90;;;;;;5025487;28;20241;-74
2022/07/30 12:55:45;;;;;;;5.40;3.00;;;21.30;99.90;;;;;;5016462;28;20237;-74
2022/07/30 12:58:13;;;;;;;4.63;2.60;;;21.60;99.90;;;;;;5010993;28;20710;-75
2022/07/30 13:00:51;;;;;;;4.30;2.80;;;21.60;99.90;;;;;;5011979;28;20829;-76
2022/07/30 13:03:21;;;;;;;3.60;2.40;;;21.90;99.90;;;;;;5012990;28;20292;-75
2022/07/30 13:05:52;;;;;;;2.97;2.40;;;22.00;99.90;;;;;;5012925;28;20268;-77
2022/07/30 13:08:49;;;;;;;2.90;2.30;;;22.00;99.90;;;;;;5015847;28;20217;-76
2022/07/30 13:11:18;;;;;;;4.63;2.40;;;21.90;99.90;;;;;;5012513;28;20209;-75
2022/07/30 13:13:48;;;;;;;2.87;2.50;;;21.80;99.90;;;;;;5012806;28;20292;-74
2022/07/30 13:16:18;;;;;;;3.87;2.17;;;22.10;99.90;;;;;;5012915;28;20229;-74